LAS weather

Public forecast

Using degrees Fahrenheit for public forecast. Weather courtesy of forecast.io.

Current aviation weather report (METAR) for McCarran International Airport

Retrieved 2020/08/10 10:56 UTC (28 minutes ago):

KLAS 101056Z 23005KT 10SM CLR 28/M04 A2989 RMK AO2 SLP091 T02781039

Aviation forecast (TAF) for McCarran International Airport

Retrieved 2020/08/10 06:22 UTC (5 hours ago):

TAF KLAS 100520Z 1006/1112 21009KT P6SM SKC FM101400 VRB05KT P6SM SKC FM102200 14009G16KT P6SM SKC FM110300 22008KT P6SM SKC